Terminal Aerodrome Forecast
Issued by NWS

Current Version | Previous Version | Text Only | Print | Product List | Glossary On
Versions: 1 2 3 4 5 6 7 8 9 10 11 12 13 14 15 16 17 18 19 20
000
FTUS42 KJAX 241744
TAFVQQ
TAF
KVQQ 241744Z 2418/2518 09013G23KT P6SM SCT025 BKN035
     FM250000 10008KT P6SM SCT015 BKN035
     FM251300 12010KT P6SM SCT030=

USA.gov is the U.S. government's official web portal to all federal, state and local government web resources and services.